sensor_id;sensor_type;location;lat;lon;timestamp;P1;durP1;ratioP1;P2;durP2;ratioP2
41261;SDS011;29629;52.532;13.352;2022-09-09T00:00:49;13.43;;;11.68;;
41261;SDS011;29629;52.532;13.352;2022-09-09T00:03:24;13.10;;;11.13;;
41261;SDS011;29629;52.532;13.352;2022-09-09T00:05:56;14.75;;;11.80;;
41261;SDS011;29629;52.532;13.352;2022-09-09T00:08:32;13.48;;;11.93;;
41261;SDS011;29629;52.532;13.352;2022-09-09T00:11:08;13.48;;;11.90;;
41261;SDS011;29629;52.532;13.352;2022-09-09T00:13:39;17.27;;;11.63;;
41261;SDS011;29629;52.532;13.352;2022-09-09T00:16:14;15.52;;;11.63;;
41261;SDS011;29629;52.532;13.352;2022-09-09T00:18:49;16.10;;;11.70;;
41261;SDS011;29629;52.532;13.352;2022-09-09T00:21:24;17.13;;;12.10;;
41261;SDS011;29629;52.532;13.352;2022-09-09T00:23:57;19.85;;;12.55;;
41261;SDS011;29629;52.532;13.352;2022-09-09T00:26:27;20.55;;;13.23;;
41261;SDS011;29629;52.532;13.352;2022-09-09T00:29:00;18.45;;;12.27;;
41261;SDS011;29629;52.532;13.352;2022-09-09T00:31:31;18.13;;;12.13;;
41261;SDS011;29629;52.532;13.352;2022-09-09T00:34:09;16.77;;;11.23;;
41261;SDS011;29629;52.532;13.352;2022-09-09T00:36:39;16.77;;;11.40;;
41261;SDS011;29629;52.532;13.352;2022-09-09T00:39:08;15.77;;;12.43;;
41261;SDS011;29629;52.532;13.352;2022-09-09T00:41:42;15.23;;;12.25;;
41261;SDS011;29629;52.532;13.352;2022-09-09T00:44:20;17.38;;;11.70;;
41261;SDS011;29629;52.532;13.352;2022-09-09T00:49:50;19.67;;;12.30;;
41261;SDS011;29629;52.532;13.352;2022-09-09T00:52:30;15.43;;;11.48;;
41261;SDS011;29629;52.532;13.352;2022-09-09T00:55:05;18.13;;;12.32;;
41261;SDS011;29629;52.532;13.352;2022-09-09T00:57:36;18.55;;;11.80;;
41261;SDS011;29629;52.532;13.352;2022-09-09T01:00:22;42.53;;;16.60;;
41261;SDS011;29629;52.532;13.352;2022-09-09T01:02:56;27.02;;;13.55;;
41261;SDS011;29629;52.532;13.352;2022-09-09T01:05:36;28.95;;;14.30;;
41261;SDS011;29629;52.532;13.352;2022-09-09T01:08:12;21.63;;;13.45;;
41261;SDS011;29629;52.532;13.352;2022-09-09T01:10:48;23.70;;;13.32;;
41261;SDS011;29629;52.532;13.352;2022-09-09T01:13:20;17.58;;;11.75;;
41261;SDS011;29629;52.532;13.352;2022-09-09T01:15:50;26.27;;;12.93;;
41261;SDS011;29629;52.532;13.352;2022-09-09T01:18:19;19.30;;;12.52;;
41261;SDS011;29629;52.532;13.352;2022-09-09T01:20:53;20.27;;;12.40;;
41261;SDS011;29629;52.532;13.352;2022-09-09T01:23:30;17.27;;;11.85;;
41261;SDS011;29629;52.532;13.352;2022-09-09T01:26:14;30.80;;;14.35;;
41261;SDS011;29629;52.532;13.352;2022-09-09T01:28:46;22.42;;;12.60;;
41261;SDS011;29629;52.532;13.352;2022-09-09T01:31:17;24.50;;;14.07;;
41261;SDS011;29629;52.532;13.352;2022-09-09T01:33:46;22.63;;;12.65;;
41261;SDS011;29629;52.532;13.352;2022-09-09T01:36:14;27.80;;;13.90;;
41261;SDS011;29629;52.532;13.352;2022-09-09T01:38:50;21.02;;;12.25;;
41261;SDS011;29629;52.532;13.352;2022-09-09T01:41:19;19.67;;;11.80;;
41261;SDS011;29629;52.532;13.352;2022-09-09T01:43:47;20.25;;;12.65;;
41261;SDS011;29629;52.532;13.352;2022-09-09T01:46:14;19.33;;;11.20;;
41261;SDS011;29629;52.532;13.352;2022-09-09T01:48:42;22.52;;;12.68;;
41261;SDS011;29629;52.532;13.352;2022-09-09T01:51:09;22.80;;;12.35;;
41261;SDS011;29629;52.532;13.352;2022-09-09T01:53:36;16.27;;;12.23;;
41261;SDS011;29629;52.532;13.352;2022-09-09T01:56:07;24.48;;;13.45;;
41261;SDS011;29629;52.532;13.352;2022-09-09T01:58:50;19.80;;;12.13;;
41261;SDS011;29629;52.532;13.352;2022-09-09T02:01:27;17.05;;;11.40;;
41261;SDS011;29629;52.532;13.352;2022-09-09T02:04:02;21.42;;;13.13;;
41261;SDS011;29629;52.532;13.352;2022-09-09T02:06:43;19.20;;;13.20;;
41261;SDS011;29629;52.532;13.352;2022-09-09T02:09:14;17.52;;;11.68;;
41261;SDS011;29629;52.532;13.352;2022-09-09T02:11:45;18.38;;;11.98;;
41261;SDS011;29629;52.532;13.352;2022-09-09T02:14:17;28.85;;;14.13;;
41261;SDS011;29629;52.532;13.352;2022-09-09T02:16:49;27.13;;;12.93;;
41261;SDS011;29629;52.532;13.352;2022-09-09T02:19:21;17.73;;;12.13;;
41261;SDS011;29629;52.532;13.352;2022-09-09T02:21:52;26.40;;;13.18;;
41261;SDS011;29629;52.532;13.352;2022-09-09T02:24:21;29.08;;;14.27;;
41261;SDS011;29629;52.532;13.352;2022-09-09T02:26:49;19.33;;;13.38;;
41261;SDS011;29629;52.532;13.352;2022-09-09T02:29:23;22.08;;;13.38;;
41261;SDS011;29629;52.532;13.352;2022-09-09T02:31:52;24.25;;;13.40;;
41261;SDS011;29629;52.532;13.352;2022-09-09T02:34:22;28.67;;;14.20;;
41261;SDS011;29629;52.532;13.352;2022-09-09T02:36:52;19.25;;;12.82;;
41261;SDS011;29629;52.532;13.352;2022-09-09T02:39:21;32.90;;;13.95;;
41261;SDS011;29629;52.532;13.352;2022-09-09T02:41:48;21.73;;;13.07;;
41261;SDS011;29629;52.532;13.352;2022-09-09T02:44:15;19.55;;;12.65;;
41261;SDS011;29629;52.532;13.352;2022-09-09T02:47:00;20.98;;;13.23;;
41261;SDS011;29629;52.532;13.352;2022-09-09T02:49:40;21.23;;;11.88;;
41261;SDS011;29629;52.532;13.352;2022-09-09T02:52:18;28.95;;;14.23;;
41261;SDS011;29629;52.532;13.352;2022-09-09T02:54:50;25.30;;;14.07;;
41261;SDS011;29629;52.532;13.352;2022-09-09T02:57:25;19.95;;;12.50;;
41261;SDS011;29629;52.532;13.352;2022-09-09T02:59:56;22.55;;;12.82;;
41261;SDS011;29629;52.532;13.352;2022-09-09T03:02:24;30.95;;;13.88;;
41261;SDS011;29629;52.532;13.352;2022-09-09T03:04:51;19.83;;;12.25;;
41261;SDS011;29629;52.532;13.352;2022-09-09T03:07:18;25.08;;;13.32;;
41261;SDS011;29629;52.532;13.352;2022-09-09T03:09:46;20.85;;;12.75;;
41261;SDS011;29629;52.532;13.352;2022-09-09T03:12:13;21.58;;;11.60;;
41261;SDS011;29629;52.532;13.352;2022-09-09T03:14:41;26.63;;;13.63;;
41261;SDS011;29629;52.532;13.352;2022-09-09T03:17:09;17.85;;;12.65;;
41261;SDS011;29629;52.532;13.352;2022-09-09T03:19:37;22.40;;;12.40;;
41261;SDS011;29629;52.532;13.352;2022-09-09T03:22:04;20.75;;;12.63;;
41261;SDS011;29629;52.532;13.352;2022-09-09T03:24:31;45.63;;;17.00;;
41261;SDS011;29629;52.532;13.352;2022-09-09T03:26:57;15.00;;;11.30;;
41261;SDS011;29629;52.532;13.352;2022-09-09T03:29:24;29.73;;;13.20;;
41261;SDS011;29629;52.532;13.352;2022-09-09T03:31:51;24.90;;;11.85;;
41261;SDS011;29629;52.532;13.352;2022-09-09T03:34:17;29.52;;;13.20;;
41261;SDS011;29629;52.532;13.352;2022-09-09T03:36:46;18.33;;;11.20;;
41261;SDS011;29629;52.532;13.352;2022-09-09T03:39:13;18.52;;;11.05;;
41261;SDS011;29629;52.532;13.352;2022-09-09T03:41:40;26.50;;;11.43;;
41261;SDS011;29629;52.532;13.352;2022-09-09T03:44:07;23.23;;;11.35;;
41261;SDS011;29629;52.532;13.352;2022-09-09T03:46:34;22.70;;;11.27;;
41261;SDS011;29629;52.532;13.352;2022-09-09T03:49:00;23.90;;;11.77;;
41261;SDS011;29629;52.532;13.352;2022-09-09T03:51:27;23.75;;;11.98;;
41261;SDS011;29629;52.532;13.352;2022-09-09T03:53:55;19.63;;;11.75;;
41261;SDS011;29629;52.532;13.352;2022-09-09T03:56:23;28.23;;;12.27;;
41261;SDS011;29629;52.532;13.352;2022-09-09T03:58:50;21.35;;;10.80;;
41261;SDS011;29629;52.532;13.352;2022-09-09T04:01:16;23.90;;;12.00;;
41261;SDS011;29629;52.532;13.352;2022-09-09T04:03:43;45.92;;;15.75;;
41261;SDS011;29629;52.532;13.352;2022-09-09T04:06:11;21.77;;;11.48;;
41261;SDS011;29629;52.532;13.352;2022-09-09T04:08:39;27.15;;;12.63;;
41261;SDS011;29629;52.532;13.352;2022-09-09T04:11:08;22.45;;;12.10;;
41261;SDS011;29629;52.532;13.352;2022-09-09T04:13:35;25.42;;;11.48;;
41261;SDS011;29629;52.532;13.352;2022-09-09T04:16:04;20.55;;;11.23;;
41261;SDS011;29629;52.532;13.352;2022-09-09T04:18:31;30.98;;;12.55;;
41261;SDS011;29629;52.532;13.352;2022-09-09T04:20:59;16.92;;;10.57;;
41261;SDS011;29629;52.532;13.352;2022-09-09T04:23:26;21.08;;;11.23;;
41261;SDS011;29629;52.532;13.352;2022-09-09T04:25:54;26.58;;;11.77;;
41261;SDS011;29629;52.532;13.352;2022-09-09T04:28:24;30.40;;;11.70;;
41261;SDS011;29629;52.532;13.352;2022-09-09T04:30:53;24.58;;;11.13;;
41261;SDS011;29629;52.532;13.352;2022-09-09T04:33:23;20.20;;;10.63;;
41261;SDS011;29629;52.532;13.352;2022-09-09T04:35:51;21.30;;;10.80;;
41261;SDS011;29629;52.532;13.352;2022-09-09T04:38:19;25.77;;;10.95;;
41261;SDS011;29629;52.532;13.352;2022-09-09T04:40:47;22.33;;;10.43;;
41261;SDS011;29629;52.532;13.352;2022-09-09T04:43:16;20.88;;;10.50;;
41261;SDS011;29629;52.532;13.352;2022-09-09T04:45:46;21.90;;;10.85;;
41261;SDS011;29629;52.532;13.352;2022-09-09T04:48:14;25.63;;;11.13;;
41261;SDS011;29629;52.532;13.352;2022-09-09T04:50:41;23.45;;;11.35;;
41261;SDS011;29629;52.532;13.352;2022-09-09T04:53:08;28.60;;;12.05;;
41261;SDS011;29629;52.532;13.352;2022-09-09T04:55:35;22.17;;;11.65;;
41261;SDS011;29629;52.532;13.352;2022-09-09T04:58:03;22.90;;;10.95;;
41261;SDS011;29629;52.532;13.352;2022-09-09T05:00:30;25.00;;;12.55;;
41261;SDS011;29629;52.532;13.352;2022-09-09T05:02:58;15.55;;;10.05;;
41261;SDS011;29629;52.532;13.352;2022-09-09T05:05:29;19.25;;;10.75;;
41261;SDS011;29629;52.532;13.352;2022-09-09T05:08:00;19.00;;;11.38;;
41261;SDS011;29629;52.532;13.352;2022-09-09T05:10:27;28.38;;;12.90;;
41261;SDS011;29629;52.532;13.352;2022-09-09T05:12:54;20.98;;;11.32;;
41261;SDS011;29629;52.532;13.352;2022-09-09T05:15:21;24.30;;;12.13;;
41261;SDS011;29629;52.532;13.352;2022-09-09T05:17:48;11.98;;;9.60;;
41261;SDS011;29629;52.532;13.352;2022-09-09T05:20:18;17.48;;;10.60;;
41261;SDS011;29629;52.532;13.352;2022-09-09T05:22:46;24.75;;;11.80;;
41261;SDS011;29629;52.532;13.352;2022-09-09T05:25:13;11.55;;;10.13;;
41261;SDS011;29629;52.532;13.352;2022-09-09T05:27:39;26.20;;;12.93;;
41261;SDS011;29629;52.532;13.352;2022-09-09T05:30:07;20.50;;;12.00;;
41261;SDS011;29629;52.532;13.352;2022-09-09T05:32:35;38.30;;;15.07;;
41261;SDS011;29629;52.532;13.352;2022-09-09T05:35:05;16.67;;;12.82;;
41261;SDS011;29629;52.532;13.352;2022-09-09T05:37:34;27.67;;;14.13;;
41261;SDS011;29629;52.532;13.352;2022-09-09T05:40:00;19.77;;;13.05;;
41261;SDS011;29629;52.532;13.352;2022-09-09T05:42:29;23.17;;;13.77;;
41261;SDS011;29629;52.532;13.352;2022-09-09T05:44:56;20.60;;;13.07;;
41261;SDS011;29629;52.532;13.352;2022-09-09T05:47:23;15.38;;;12.25;;
41261;SDS011;29629;52.532;13.352;2022-09-09T05:49:52;23.90;;;13.38;;
41261;SDS011;29629;52.532;13.352;2022-09-09T05:52:20;18.75;;;13.20;;
41261;SDS011;29629;52.532;13.352;2022-09-09T05:54:49;20.25;;;13.13;;
41261;SDS011;29629;52.532;13.352;2022-09-09T05:57:15;19.00;;;13.73;;
41261;SDS011;29629;52.532;13.352;2022-09-09T05:59:44;13.57;;;12.48;;
41261;SDS011;29629;52.532;13.352;2022-09-09T06:02:11;19.75;;;13.48;;
41261;SDS011;29629;52.532;13.352;2022-09-09T06:04:39;48.78;;;19.85;;
41261;SDS011;29629;52.532;13.352;2022-09-09T06:07:06;23.55;;;14.40;;
41261;SDS011;29629;52.532;13.352;2022-09-09T06:09:33;24.50;;;15.25;;
41261;SDS011;29629;52.532;13.352;2022-09-09T06:12:02;24.00;;;15.45;;
41261;SDS011;29629;52.532;13.352;2022-09-09T06:14:29;35.15;;;17.02;;
41261;SDS011;29629;52.532;13.352;2022-09-09T06:16:55;25.95;;;15.80;;
41261;SDS011;29629;52.532;13.352;2022-09-09T06:19:23;22.40;;;15.13;;
41261;SDS011;29629;52.532;13.352;2022-09-09T06:21:51;29.52;;;16.95;;
41261;SDS011;29629;52.532;13.352;2022-09-09T06:24:18;23.52;;;15.85;;
41261;SDS011;29629;52.532;13.352;2022-09-09T06:26:45;25.38;;;15.63;;
41261;SDS011;29629;52.532;13.352;2022-09-09T06:29:13;25.85;;;16.42;;
41261;SDS011;29629;52.532;13.352;2022-09-09T06:31:40;28.88;;;15.77;;
41261;SDS011;29629;52.532;13.352;2022-09-09T06:34:07;31.60;;;16.42;;
41261;SDS011;29629;52.532;13.352;2022-09-09T06:36:35;30.42;;;17.05;;
41261;SDS011;29629;52.532;13.352;2022-09-09T06:39:03;16.88;;;14.75;;
41261;SDS011;29629;52.532;13.352;2022-09-09T06:41:30;25.00;;;16.40;;
41261;SDS011;29629;52.532;13.352;2022-09-09T06:43:59;21.13;;;15.02;;
41261;SDS011;29629;52.532;13.352;2022-09-09T06:46:27;27.35;;;16.00;;
41261;SDS011;29629;52.532;13.352;2022-09-09T06:48:57;22.25;;;15.25;;
41261;SDS011;29629;52.532;13.352;2022-09-09T06:51:25;24.75;;;15.20;;
41261;SDS011;29629;52.532;13.352;2022-09-09T06:53:53;20.55;;;14.88;;
41261;SDS011;29629;52.532;13.352;2022-09-09T06:56:21;22.60;;;14.93;;
41261;SDS011;29629;52.532;13.352;2022-09-09T06:58:50;24.67;;;15.55;;
41261;SDS011;29629;52.532;13.352;2022-09-09T07:01:18;20.48;;;18.17;;
41261;SDS011;29629;52.532;13.352;2022-09-09T07:03:47;37.55;;;18.73;;
41261;SDS011;29629;52.532;13.352;2022-09-09T07:06:16;17.50;;;15.80;;
41261;SDS011;29629;52.532;13.352;2022-09-09T07:08:47;16.23;;;14.48;;
41261;SDS011;29629;52.532;13.352;2022-09-09T07:11:15;18.98;;;14.45;;
41261;SDS011;29629;52.532;13.352;2022-09-09T07:13:42;17.92;;;13.43;;
41261;SDS011;29629;52.532;13.352;2022-09-09T07:16:09;16.15;;;10.02;;
41261;SDS011;29629;52.532;13.352;2022-09-09T07:18:38;17.80;;;10.45;;
41261;SDS011;29629;52.532;13.352;2022-09-09T07:21:07;15.15;;;12.02;;
41261;SDS011;29629;52.532;13.352;2022-09-09T07:23:37;14.77;;;9.60;;
41261;SDS011;29629;52.532;13.352;2022-09-09T07:26:07;17.73;;;9.32;;
41261;SDS011;29629;52.532;13.352;2022-09-09T07:28:34;17.48;;;9.18;;
41261;SDS011;29629;52.532;13.352;2022-09-09T07:31:01;19.48;;;7.65;;
41261;SDS011;29629;52.532;13.352;2022-09-09T07:33:29;20.77;;;7.40;;
41261;SDS011;29629;52.532;13.352;2022-09-09T07:36:02;8.35;;;4.40;;
41261;SDS011;29629;52.532;13.352;2022-09-09T07:38:32;17.13;;;5.68;;
41261;SDS011;29629;52.532;13.352;2022-09-09T07:41:03;17.55;;;5.53;;
41261;SDS011;29629;52.532;13.352;2022-09-09T07:43:32;10.70;;;4.30;;
41261;SDS011;29629;52.532;13.352;2022-09-09T07:45:59;10.35;;;4.18;;
41261;SDS011;29629;52.532;13.352;2022-09-09T07:48:27;15.52;;;4.97;;
41261;SDS011;29629;52.532;13.352;2022-09-09T07:51:02;39.03;;;10.10;;
41261;SDS011;29629;52.532;13.352;2022-09-09T07:53:32;13.93;;;4.53;;
41261;SDS011;29629;52.532;13.352;2022-09-09T07:56:04;16.83;;;5.53;;
41261;SDS011;29629;52.532;13.352;2022-09-09T07:58:34;19.05;;;5.53;;
41261;SDS011;29629;52.532;13.352;2022-09-09T08:01:05;15.85;;;4.85;;
41261;SDS011;29629;52.532;13.352;2022-09-09T08:03:33;17.02;;;5.05;;
41261;SDS011;29629;52.532;13.352;2022-09-09T08:06:00;17.55;;;5.00;;
41261;SDS011;29629;52.532;13.352;2022-09-09T08:08:27;21.85;;;5.88;;
41261;SDS011;29629;52.532;13.352;2022-09-09T08:11:02;15.90;;;5.72;;
41261;SDS011;29629;52.532;13.352;2022-09-09T08:13:34;13.07;;;4.78;;
41261;SDS011;29629;52.532;13.352;2022-09-09T08:16:07;15.38;;;6.45;;
41261;SDS011;29629;52.532;13.352;2022-09-09T08:18:36;17.58;;;10.82;;
41261;SDS011;29629;52.532;13.352;2022-09-09T08:21:04;16.02;;;10.35;;
41261;SDS011;29629;52.532;13.352;2022-09-09T08:23:33;15.85;;;5.03;;
41261;SDS011;29629;52.532;13.352;2022-09-09T08:26:05;13.48;;;6.32;;
41261;SDS011;29629;52.532;13.352;2022-09-09T08:28:34;16.10;;;4.47;;
41261;SDS011;29629;52.532;13.352;2022-09-09T08:31:07;10.60;;;3.28;;
41261;SDS011;29629;52.532;13.352;2022-09-09T08:33:36;12.93;;;3.85;;
41261;SDS011;29629;52.532;13.352;2022-09-09T08:36:03;11.77;;;4.38;;
41261;SDS011;29629;52.532;13.352;2022-09-09T08:38:31;17.45;;;5.00;;
41261;SDS011;29629;52.532;13.352;2022-09-09T08:41:00;14.48;;;4.03;;
41261;SDS011;29629;52.532;13.352;2022-09-09T08:43:51;19.88;;;5.15;;
41261;SDS011;29629;52.532;13.352;2022-09-09T08:46:29;25.17;;;5.65;;
41261;SDS011;29629;52.532;13.352;2022-09-09T08:49:04;18.90;;;5.10;;
41261;SDS011;29629;52.532;13.352;2022-09-09T08:51:48;16.08;;;5.90;;
41261;SDS011;29629;52.532;13.352;2022-09-09T08:54:15;24.20;;;8.38;;
41261;SDS011;29629;52.532;13.352;2022-09-09T08:56:45;14.73;;;4.63;;
41261;SDS011;29629;52.532;13.352;2022-09-09T08:59:12;13.00;;;4.40;;
41261;SDS011;29629;52.532;13.352;2022-09-09T09:01:49;17.75;;;4.25;;
41261;SDS011;29629;52.532;13.352;2022-09-09T09:04:32;19.50;;;5.18;;
41261;SDS011;29629;52.532;13.352;2022-09-09T09:07:07;15.07;;;4.53;;
41261;SDS011;29629;52.532;13.352;2022-09-09T09:09:42;19.50;;;4.82;;
41261;SDS011;29629;52.532;13.352;2022-09-09T09:12:25;19.58;;;5.63;;
41261;SDS011;29629;52.532;13.352;2022-09-09T09:14:54;15.88;;;4.82;;
41261;SDS011;29629;52.532;13.352;2022-09-09T09:17:25;17.25;;;5.15;;
41261;SDS011;29629;52.532;13.352;2022-09-09T09:19:58;15.73;;;5.75;;
41261;SDS011;29629;52.532;13.352;2022-09-09T09:22:26;18.08;;;5.20;;
41261;SDS011;29629;52.532;13.352;2022-09-09T09:25:01;20.17;;;5.03;;
41261;SDS011;29629;52.532;13.352;2022-09-09T09:27:40;19.10;;;4.57;;
41261;SDS011;29629;52.532;13.352;2022-09-09T09:30:13;14.95;;;4.32;;
41261;SDS011;29629;52.532;13.352;2022-09-09T09:32:44;16.92;;;4.38;;
41261;SDS011;29629;52.532;13.352;2022-09-09T09:35:17;16.92;;;5.93;;
41261;SDS011;29629;52.532;13.352;2022-09-09T09:37:44;13.77;;;5.00;;
41261;SDS011;29629;52.532;13.352;2022-09-09T09:40:12;17.13;;;6.95;;
41261;SDS011;29629;52.532;13.352;2022-09-09T09:42:48;19.70;;;8.13;;
41261;SDS011;29629;52.532;13.352;2022-09-09T09:45:20;9.48;;;7.00;;
41261;SDS011;29629;52.532;13.352;2022-09-09T09:47:57;11.63;;;6.22;;
41261;SDS011;29629;52.532;13.352;2022-09-09T09:50:27;24.08;;;8.65;;
41261;SDS011;29629;52.532;13.352;2022-09-09T09:52:55;17.45;;;8.38;;
41261;SDS011;29629;52.532;13.352;2022-09-09T09:55:23;17.30;;;8.60;;
41261;SDS011;29629;52.532;13.352;2022-09-09T09:57:52;15.20;;;9.20;;
41261;SDS011;29629;52.532;13.352;2022-09-09T10:00:19;17.15;;;9.68;;
41261;SDS011;29629;52.532;13.352;2022-09-09T10:02:48;16.17;;;9.80;;
41261;SDS011;29629;52.532;13.352;2022-09-09T10:05:18;16.10;;;10.45;;
41261;SDS011;29629;52.532;13.352;2022-09-09T10:07:46;16.13;;;10.13;;
41261;SDS011;29629;52.532;13.352;2022-09-09T10:10:32;9.18;;;7.65;;
41261;SDS011;29629;52.532;13.352;2022-09-09T10:13:08;16.00;;;8.25;;
41261;SDS011;29629;52.532;13.352;2022-09-09T10:15:43;19.40;;;7.60;;
41261;SDS011;29629;52.532;13.352;2022-09-09T10:18:25;15.35;;;6.60;;
41261;SDS011;29629;52.532;13.352;2022-09-09T10:21:15;20.33;;;8.40;;
41261;SDS011;29629;52.532;13.352;2022-09-09T10:23:53;20.48;;;9.13;;
41261;SDS011;29629;52.532;13.352;2022-09-09T10:26:31;17.20;;;10.82;;
41261;SDS011;29629;52.532;13.352;2022-09-09T10:31:56;12.90;;;8.63;;
41261;SDS011;29629;52.532;13.352;2022-09-09T10:34:54;33.20;;;11.50;;
41261;SDS011;29629;52.532;13.352;2022-09-09T10:37:27;17.05;;;8.45;;
41261;SDS011;29629;52.532;13.352;2022-09-09T10:40:08;20.70;;;8.52;;
41261;SDS011;29629;52.532;13.352;2022-09-09T10:42:46;16.88;;;7.55;;
41261;SDS011;29629;52.532;13.352;2022-09-09T10:45:17;17.80;;;7.00;;
41261;SDS011;29629;52.532;13.352;2022-09-09T10:47:50;12.95;;;7.00;;
41261;SDS011;29629;52.532;13.352;2022-09-09T10:53:32;17.38;;;8.40;;
41261;SDS011;29629;52.532;13.352;2022-09-09T10:56:04;13.80;;;7.85;;
41261;SDS011;29629;52.532;13.352;2022-09-09T10:58:36;15.75;;;8.10;;
41261;SDS011;29629;52.532;13.352;2022-09-09T11:01:11;14.63;;;8.38;;
41261;SDS011;29629;52.532;13.352;2022-09-09T11:03:43;17.02;;;9.48;;
41261;SDS011;29629;52.532;13.352;2022-09-09T11:08:45;21.08;;;10.45;;
41261;SDS011;29629;52.532;13.352;2022-09-09T11:11:15;15.48;;;9.57;;
41261;SDS011;29629;52.532;13.352;2022-09-09T11:13:49;18.20;;;9.00;;
41261;SDS011;29629;52.532;13.352;2022-09-09T11:16:24;10.90;;;8.23;;
41261;SDS011;29629;52.532;13.352;2022-09-09T11:18:57;8.98;;;8.18;;
41261;SDS011;29629;52.532;13.352;2022-09-09T11:21:28;14.65;;;9.13;;
41261;SDS011;29629;52.532;13.352;2022-09-09T11:24:01;15.20;;;8.88;;
41261;SDS011;29629;52.532;13.352;2022-09-09T11:26:36;20.60;;;9.35;;
41261;SDS011;29629;52.532;13.352;2022-09-09T11:29:13;11.80;;;7.75;;
41261;SDS011;29629;52.532;13.352;2022-09-09T11:32:16;17.02;;;9.25;;
41261;SDS011;29629;52.532;13.352;2022-09-09T11:35:00;14.75;;;9.13;;
41261;SDS011;29629;52.532;13.352;2022-09-09T11:40:24;16.77;;;9.38;;
41261;SDS011;29629;52.532;13.352;2022-09-09T11:43:02;13.88;;;9.02;;
41261;SDS011;29629;52.532;13.352;2022-09-09T11:45:31;12.82;;;8.27;;
41261;SDS011;29629;52.532;13.352;2022-09-09T11:48:03;14.85;;;7.90;;
41261;SDS011;29629;52.532;13.352;2022-09-09T11:50:32;19.30;;;8.15;;
41261;SDS011;29629;52.532;13.352;2022-09-09T11:53:05;15.80;;;7.35;;
41261;SDS011;29629;52.532;13.352;2022-09-09T11:56:05;17.38;;;6.53;;
41261;SDS011;29629;52.532;13.352;2022-09-09T11:58:36;22.08;;;7.03;;
41261;SDS011;29629;52.532;13.352;2022-09-09T12:03:59;15.43;;;6.68;;
41261;SDS011;29629;52.532;13.352;2022-09-09T12:06:52;17.77;;;6.47;;
41261;SDS011;29629;52.532;13.352;2022-09-09T12:09:22;16.65;;;6.25;;
41261;SDS011;29629;52.532;13.352;2022-09-09T12:12:04;21.35;;;6.47;;
41261;SDS011;29629;52.532;13.352;2022-09-09T12:14:36;32.17;;;8.10;;
41261;SDS011;29629;52.532;13.352;2022-09-09T12:17:09;20.95;;;6.93;;
41261;SDS011;29629;52.532;13.352;2022-09-09T12:19:44;18.40;;;5.28;;
41261;SDS011;29629;52.532;13.352;2022-09-09T12:22:14;21.60;;;6.43;;
41261;SDS011;29629;52.532;13.352;2022-09-09T12:24:51;16.98;;;6.05;;
41261;SDS011;29629;52.532;13.352;2022-09-09T12:27:27;30.88;;;8.45;;
41261;SDS011;29629;52.532;13.352;2022-09-09T12:30:03;23.73;;;6.38;;
41261;SDS011;29629;52.532;13.352;2022-09-09T12:32:35;22.33;;;6.28;;
41261;SDS011;29629;52.532;13.352;2022-09-09T12:35:09;19.48;;;5.50;;
41261;SDS011;29629;52.532;13.352;2022-09-09T12:37:38;15.93;;;4.57;;
41261;SDS011;29629;52.532;13.352;2022-09-09T12:40:18;16.38;;;4.85;;
41261;SDS011;29629;52.532;13.352;2022-09-09T12:42:48;25.90;;;6.28;;
41261;SDS011;29629;52.532;13.352;2022-09-09T12:45:15;10.00;;;4.43;;
41261;SDS011;29629;52.532;13.352;2022-09-09T12:47:45;13.38;;;4.53;;
41261;SDS011;29629;52.532;13.352;2022-09-09T12:50:19;7.60;;;3.08;;
41261;SDS011;29629;52.532;13.352;2022-09-09T12:52:48;24.88;;;5.43;;
41261;SDS011;29629;52.532;13.352;2022-09-09T12:55:18;17.85;;;4.78;;
41261;SDS011;29629;52.532;13.352;2022-09-09T12:57:50;10.27;;;3.17;;
41261;SDS011;29629;52.532;13.352;2022-09-09T13:00:18;21.15;;;6.68;;
41261;SDS011;29629;52.532;13.352;2022-09-09T13:02:48;19.80;;;4.88;;
41261;SDS011;29629;52.532;13.352;2022-09-09T13:05:19;5.78;;;2.00;;
41261;SDS011;29629;52.532;13.352;2022-09-09T13:07:48;24.33;;;4.97;;
41261;SDS011;29629;52.532;13.352;2022-09-09T13:10:18;11.85;;;4.90;;
41261;SDS011;29629;52.532;13.352;2022-09-09T13:12:50;14.00;;;4.25;;
41261;SDS011;29629;52.532;13.352;2022-09-09T13:15:19;15.95;;;6.35;;
41261;SDS011;29629;52.532;13.352;2022-09-09T13:17:51;18.58;;;8.30;;
41261;SDS011;29629;52.532;13.352;2022-09-09T13:20:21;19.50;;;8.98;;
41261;SDS011;29629;52.532;13.352;2022-09-09T13:22:50;21.73;;;6.75;;
41261;SDS011;29629;52.532;13.352;2022-09-09T13:25:20;20.15;;;6.05;;
41261;SDS011;29629;52.532;13.352;2022-09-09T13:27:52;20.23;;;6.72;;
41261;SDS011;29629;52.532;13.352;2022-09-09T13:30:22;20.67;;;10.98;;
41261;SDS011;29629;52.532;13.352;2022-09-09T13:33:02;24.92;;;15.90;;
41261;SDS011;29629;52.532;13.352;2022-09-09T13:35:32;29.08;;;23.73;;
41261;SDS011;29629;52.532;13.352;2022-09-09T13:38:05;25.67;;;21.08;;
41261;SDS011;29629;52.532;13.352;2022-09-09T13:40:34;25.77;;;20.95;;
41261;SDS011;29629;52.532;13.352;2022-09-09T13:43:02;33.25;;;25.20;;
41261;SDS011;29629;52.532;13.352;2022-09-09T13:45:30;23.77;;;21.23;;
41261;SDS011;29629;52.532;13.352;2022-09-09T13:47:59;26.73;;;18.17;;
41261;SDS011;29629;52.532;13.352;2022-09-09T13:50:39;17.75;;;9.88;;
41261;SDS011;29629;52.532;13.352;2022-09-09T13:53:06;10.90;;;4.10;;
41261;SDS011;29629;52.532;13.352;2022-09-09T13:55:34;24.95;;;4.85;;
41261;SDS011;29629;52.532;13.352;2022-09-09T13:58:03;11.10;;;2.65;;
41261;SDS011;29629;52.532;13.352;2022-09-09T14:00:31;19.25;;;4.85;;
41261;SDS011;29629;52.532;13.352;2022-09-09T14:03:00;23.75;;;14.70;;
41261;SDS011;29629;52.532;13.352;2022-09-09T14:05:27;25.65;;;5.90;;
41261;SDS011;29629;52.532;13.352;2022-09-09T14:07:57;12.63;;;3.70;;
41261;SDS011;29629;52.532;13.352;2022-09-09T14:10:25;20.48;;;4.57;;
41261;SDS011;29629;52.532;13.352;2022-09-09T14:12:52;21.02;;;4.97;;
41261;SDS011;29629;52.532;13.352;2022-09-09T14:15:19;22.58;;;5.50;;
41261;SDS011;29629;52.532;13.352;2022-09-09T14:17:46;17.58;;;4.78;;
41261;SDS011;29629;52.532;13.352;2022-09-09T14:20:13;10.52;;;3.28;;
41261;SDS011;29629;52.532;13.352;2022-09-09T14:22:42;26.52;;;5.72;;
41261;SDS011;29629;52.532;13.352;2022-09-09T14:25:10;28.48;;;6.35;;
41261;SDS011;29629;52.532;13.352;2022-09-09T14:27:38;18.75;;;4.50;;
41261;SDS011;29629;52.532;13.352;2022-09-09T14:30:05;5.82;;;2.53;;
41261;SDS011;29629;52.532;13.352;2022-09-09T14:32:33;16.30;;;4.43;;
41261;SDS011;29629;52.532;13.352;2022-09-09T14:35:00;17.73;;;4.50;;
41261;SDS011;29629;52.532;13.352;2022-09-09T14:37:27;17.85;;;4.22;;
41261;SDS011;29629;52.532;13.352;2022-09-09T14:39:56;6.13;;;2.55;;
41261;SDS011;29629;52.532;13.352;2022-09-09T14:42:24;18.92;;;4.90;;
41261;SDS011;29629;52.532;13.352;2022-09-09T14:44:51;22.40;;;4.88;;
41261;SDS011;29629;52.532;13.352;2022-09-09T14:47:18;14.40;;;8.05;;
41261;SDS011;29629;52.532;13.352;2022-09-09T14:49:45;21.10;;;11.30;;
41261;SDS011;29629;52.532;13.352;2022-09-09T14:52:14;17.23;;;12.38;;